sensor_id;sensor_type;location;lat;lon;timestamp;temperature;humidity
67192;HTU21D;54120;53.504;49.426;2023-04-02T00:09:14;6.66;63.17
67192;HTU21D;54120;53.504;49.426;2023-04-02T00:11:51;6.63;63.50
67192;HTU21D;54120;53.504;49.426;2023-04-02T00:14:32;6.61;63.46
67192;HTU21D;54120;53.504;49.426;2023-04-02T00:17:03;6.65;63.37
67192;HTU21D;54120;53.504;49.426;2023-04-02T00:19:44;6.61;63.55
67192;HTU21D;54120;53.504;49.426;2023-04-02T00:22:16;6.59;63.64
67192;HTU21D;54120;53.504;49.426;2023-04-02T00:24:43;6.57;63.69
67192;HTU21D;54120;53.504;49.426;2023-04-02T00:27:12;6.55;63.87
67192;HTU21D;54120;53.504;49.426;2023-04-02T00:29:49;6.59;63.76
67192;HTU21D;54120;53.504;49.426;2023-04-02T00:32:23;6.65;64.06
67192;HTU21D;54120;53.504;49.426;2023-04-02T00:34:50;6.63;63.74
67192;HTU21D;54120;53.504;49.426;2023-04-02T00:37:20;6.59;63.82
67192;HTU21D;54120;53.504;49.426;2023-04-02T00:39:57;6.63;63.91
67192;HTU21D;54120;53.504;49.426;2023-04-02T00:42:29;6.64;63.85
67192;HTU21D;54120;53.504;49.426;2023-04-02T00:44:56;6.66;63.90
67192;HTU21D;54120;53.504;49.426;2023-04-02T00:47:26;6.66;63.91
67192;HTU21D;54120;53.504;49.426;2023-04-02T00:50:03;6.65;64.11
67192;HTU21D;54120;53.504;49.426;2023-04-02T00:52:32;6.65;63.95
67192;HTU21D;54120;53.504;49.426;2023-04-02T00:57:48;6.68;63.87
67192;HTU21D;54120;53.504;49.426;2023-04-02T01:00:21;6.71;63.84
67192;HTU21D;54120;53.504;49.426;2023-04-02T01:05:47;6.73;63.73
67192;HTU21D;54120;53.504;49.426;2023-04-02T01:22:36;6.83;63.25
67192;HTU21D;54120;53.504;49.426;2023-04-02T01:25:06;6.78;63.40
67192;HTU21D;54120;53.504;49.426;2023-04-02T01:27:54;6.73;63.59
67192;HTU21D;54120;53.504;49.426;2023-04-02T01:30:22;6.78;63.61
67192;HTU21D;54120;53.504;49.426;2023-04-02T01:32:48;6.84;63.50
67192;HTU21D;54120;53.504;49.426;2023-04-02T01:35:14;6.84;63.60
67192;HTU21D;54120;53.504;49.426;2023-04-02T01:38:00;6.80;63.52
67192;HTU21D;54120;53.504;49.426;2023-04-02T01:40:37;6.76;63.55
67192;HTU21D;54120;53.504;49.426;2023-04-02T01:45:37;6.64;64.01
67192;HTU21D;54120;53.504;49.426;2023-04-02T01:48:24;6.58;64.38
67192;HTU21D;54120;53.504;49.426;2023-04-02T01:50:54;6.63;64.46
67192;HTU21D;54120;53.504;49.426;2023-04-02T01:53:24;6.66;64.92
67192;HTU21D;54120;53.504;49.426;2023-04-02T01:55:56;6.79;64.24
67192;HTU21D;54120;53.504;49.426;2023-04-02T01:58:29;6.74;64.67
67192;HTU21D;54120;53.504;49.426;2023-04-02T02:01:05;6.73;64.61
67192;HTU21D;54120;53.504;49.426;2023-04-02T02:03:33;6.71;64.99
67192;HTU21D;54120;53.504;49.426;2023-04-02T02:06:01;6.67;65.06
67192;HTU21D;54120;53.504;49.426;2023-04-02T02:08:47;6.71;65.17
67192;HTU21D;54120;53.504;49.426;2023-04-02T02:11:20;6.72;65.21
67192;HTU21D;54120;53.504;49.426;2023-04-02T02:13:53;6.76;65.18
67192;HTU21D;54120;53.504;49.426;2023-04-02T02:16:20;6.76;65.45
67192;HTU21D;54120;53.504;49.426;2023-04-02T02:18:50;6.74;65.52
67192;HTU21D;54120;53.504;49.426;2023-04-02T02:21:40;6.80;65.62
67192;HTU21D;54120;53.504;49.426;2023-04-02T02:24:25;6.84;65.99
67192;HTU21D;54120;53.504;49.426;2023-04-02T02:29:35;6.96;65.93
67192;HTU21D;54120;53.504;49.426;2023-04-02T02:32:03;6.97;66.08
67192;HTU21D;54120;53.504;49.426;2023-04-02T02:34:39;7.03;66.46
67192;HTU21D;54120;53.504;49.426;2023-04-02T02:37:39;7.02;66.37
67192;HTU21D;54120;53.504;49.426;2023-04-02T02:40:15;7.02;66.79
67192;HTU21D;54120;53.504;49.426;2023-04-02T02:42:47;7.02;67.32
67192;HTU21D;54120;53.504;49.426;2023-04-02T02:45:17;6.98;67.94
67192;HTU21D;54120;53.504;49.426;2023-04-02T02:47:47;6.93;68.20
67192;HTU21D;54120;53.504;49.426;2023-04-02T02:50:22;6.89;69.13
67192;HTU21D;54120;53.504;49.426;2023-04-02T02:52:55;6.87;69.86
67192;HTU21D;54120;53.504;49.426;2023-04-02T02:55:33;6.88;69.94
67192;HTU21D;54120;53.504;49.426;2023-04-02T02:58:08;6.86;69.45
67192;HTU21D;54120;53.504;49.426;2023-04-02T03:00:37;6.89;70.48
67192;HTU21D;54120;53.504;49.426;2023-04-02T03:03:11;6.85;70.29
67192;HTU21D;54120;53.504;49.426;2023-04-02T03:05:40;6.90;70.39
67192;HTU21D;54120;53.504;49.426;2023-04-02T03:08:18;6.95;70.77
67192;HTU21D;54120;53.504;49.426;2023-04-02T03:13:49;6.89;71.79
67192;HTU21D;54120;53.504;49.426;2023-04-02T03:16:25;6.84;72.77
67192;HTU21D;54120;53.504;49.426;2023-04-02T03:21:48;6.68;74.86
67192;HTU21D;54120;53.504;49.426;2023-04-02T03:27:27;6.70;75.43
67192;HTU21D;54120;53.504;49.426;2023-04-02T03:30:20;6.79;76.08
67192;HTU21D;54120;53.504;49.426;2023-04-02T03:32:52;6.81;75.90
67192;HTU21D;54120;53.504;49.426;2023-04-02T03:38:40;6.80;77.81
67192;HTU21D;54120;53.504;49.426;2023-04-02T03:41:21;6.76;77.53
67192;HTU21D;54120;53.504;49.426;2023-04-02T03:43:52;6.80;77.70
67192;HTU21D;54120;53.504;49.426;2023-04-02T03:46:36;6.87;77.88
67192;HTU21D;54120;53.504;49.426;2023-04-02T03:49:30;6.97;77.85
67192;HTU21D;54120;53.504;49.426;2023-04-02T03:54:28;7.03;77.63
67192;HTU21D;54120;53.504;49.426;2023-04-02T03:56:56;7.13;77.48
67192;HTU21D;54120;53.504;49.426;2023-04-02T03:59:36;7.20;77.14
67192;HTU21D;54120;53.504;49.426;2023-04-02T04:04:43;7.22;76.60
67192;HTU21D;54120;53.504;49.426;2023-04-02T04:07:22;7.25;75.97
67192;HTU21D;54120;53.504;49.426;2023-04-02T04:09:53;7.31;75.86
67192;HTU21D;54120;53.504;49.426;2023-04-02T04:12:23;7.34;75.07
67192;HTU21D;54120;53.504;49.426;2023-04-02T04:15:07;7.42;74.46
67192;HTU21D;54120;53.504;49.426;2023-04-02T04:25:59;7.58;73.77
67192;HTU21D;54120;53.504;49.426;2023-04-02T04:31:18;7.71;73.07
67192;HTU21D;54120;53.504;49.426;2023-04-02T04:33:49;7.72;73.04
67192;HTU21D;54120;53.504;49.426;2023-04-02T04:38:56;7.74;73.19
67192;HTU21D;54120;53.504;49.426;2023-04-02T04:41:32;7.81;72.98
67192;HTU21D;54120;53.504;49.426;2023-04-02T04:44:14;7.93;72.76
67192;HTU21D;54120;53.504;49.426;2023-04-02T04:46:50;8.04;72.22
67192;HTU21D;54120;53.504;49.426;2023-04-02T04:49:24;7.98;72.70
67192;HTU21D;54120;53.504;49.426;2023-04-02T04:52:13;7.83;73.64
67192;HTU21D;54120;53.504;49.426;2023-04-02T04:54:41;7.88;73.83
67192;HTU21D;54120;53.504;49.426;2023-04-02T04:57:22;7.92;73.66
67192;HTU21D;54120;53.504;49.426;2023-04-02T04:59:57;7.99;73.80
67192;HTU21D;54120;53.504;49.426;2023-04-02T05:02:30;8.22;72.98
67192;HTU21D;54120;53.504;49.426;2023-04-02T05:04:59;8.38;72.35
67192;HTU21D;54120;53.504;49.426;2023-04-02T05:07:30;8.46;71.74
67192;HTU21D;54120;53.504;49.426;2023-04-02T05:15:23;9.07;68.84
67192;HTU21D;54120;53.504;49.426;2023-04-02T05:17:56;9.11;68.76
67192;HTU21D;54120;53.504;49.426;2023-04-02T05:20:30;9.03;68.75
67192;HTU21D;54120;53.504;49.426;2023-04-02T05:23:25;9.17;68.10
67192;HTU21D;54120;53.504;49.426;2023-04-02T05:26:15;9.23;67.88
67192;HTU21D;54120;53.504;49.426;2023-04-02T05:29:00;9.33;67.94
67192;HTU21D;54120;53.504;49.426;2023-04-02T05:31:44;9.56;65.30
67192;HTU21D;54120;53.504;49.426;2023-04-02T05:34:24;9.76;64.51
67192;HTU21D;54120;53.504;49.426;2023-04-02T05:36:53;9.94;62.51
67192;HTU21D;54120;53.504;49.426;2023-04-02T05:39:22;9.81;59.83
67192;HTU21D;54120;53.504;49.426;2023-04-02T05:42:06;9.64;61.37
67192;HTU21D;54120;53.504;49.426;2023-04-02T05:44:48;9.83;60.06
67192;HTU21D;54120;53.504;49.426;2023-04-02T05:47:20;10.29;58.61
67192;HTU21D;54120;53.504;49.426;2023-04-02T05:52:27;10.46;59.53
67192;HTU21D;54120;53.504;49.426;2023-04-02T05:57:55;10.77;58.87
67192;HTU21D;54120;53.504;49.426;2023-04-02T06:00:42;11.31;55.67
67192;HTU21D;54120;53.504;49.426;2023-04-02T06:05:57;13.20;50.55
67192;HTU21D;54120;53.504;49.426;2023-04-02T06:08:33;14.26;47.67
67192;HTU21D;54120;53.504;49.426;2023-04-02T06:11:19;14.58;46.31
67192;HTU21D;54120;53.504;49.426;2023-04-02T06:13:47;14.35;46.99
67192;HTU21D;54120;53.504;49.426;2023-04-02T06:16:14;13.83;47.73
67192;HTU21D;54120;53.504;49.426;2023-04-02T06:18:41;14.19;47.09
67192;HTU21D;54120;53.504;49.426;2023-04-02T06:21:13;14.67;44.70
67192;HTU21D;54120;53.504;49.426;2023-04-02T06:24:02;14.29;45.16
67192;HTU21D;54120;53.504;49.426;2023-04-02T06:26:35;14.78;43.64
67192;HTU21D;54120;53.504;49.426;2023-04-02T06:29:08;14.35;44.97
67192;HTU21D;54120;53.504;49.426;2023-04-02T06:34:26;13.48;48.28
67192;HTU21D;54120;53.504;49.426;2023-04-02T06:36:57;14.28;46.19
67192;HTU21D;54120;53.504;49.426;2023-04-02T06:39:26;13.90;47.09
67192;HTU21D;54120;53.504;49.426;2023-04-02T06:44:36;14.75;44.74
67192;HTU21D;54120;53.504;49.426;2023-04-02T06:49:45;15.38;42.94
67192;HTU21D;54120;53.504;49.426;2023-04-02T06:52:20;15.85;42.08
67192;HTU21D;54120;53.504;49.426;2023-04-02T06:54:48;15.38;43.47
67192;HTU21D;54120;53.504;49.426;2023-04-02T06:57:14;16.02;42.18
67192;HTU21D;54120;53.504;49.426;2023-04-02T06:59:41;15.23;43.48
67192;HTU21D;54120;53.504;49.426;2023-04-02T07:04:47;14.77;44.59
67192;HTU21D;54120;53.504;49.426;2023-04-02T07:07:13;15.22;42.93
67192;HTU21D;54120;53.504;49.426;2023-04-02T07:09:40;15.49;42.40
67192;HTU21D;54120;53.504;49.426;2023-04-02T07:12:11;14.63;44.23
67192;HTU21D;54120;53.504;49.426;2023-04-02T07:14:38;14.65;44.21
67192;HTU21D;54120;53.504;49.426;2023-04-02T07:17:04;15.02;42.72
67192;HTU21D;54120;53.504;49.426;2023-04-02T07:19:31;14.68;43.55
67192;HTU21D;54120;53.504;49.426;2023-04-02T07:21:57;14.91;42.85
67192;HTU21D;54120;53.504;49.426;2023-04-02T07:24:24;15.12;42.48
67192;HTU21D;54120;53.504;49.426;2023-04-02T07:26:50;14.89;43.50
67192;HTU21D;54120;53.504;49.426;2023-04-02T07:29:16;14.68;44.19
67192;HTU21D;54120;53.504;49.426;2023-04-02T07:31:43;14.88;42.82
67192;HTU21D;54120;53.504;49.426;2023-04-02T07:34:09;14.56;43.18
67192;HTU21D;54120;53.504;49.426;2023-04-02T07:36:36;14.42;44.21
67192;HTU21D;54120;53.504;49.426;2023-04-02T07:39:02;14.89;42.82
67192;HTU21D;54120;53.504;49.426;2023-04-02T07:41:29;14.67;42.81
67192;HTU21D;54120;53.504;49.426;2023-04-02T07:43:55;14.58;43.14
67192;HTU21D;54120;53.504;49.426;2023-04-02T07:46:21;13.89;45.16
67192;HTU21D;54120;53.504;49.426;2023-04-02T07:48:48;13.62;45.92
67192;HTU21D;54120;53.504;49.426;2023-04-02T07:51:23;13.22;47.12
67192;HTU21D;54120;53.504;49.426;2023-04-02T07:53:49;13.03;47.86
67192;HTU21D;54120;53.504;49.426;2023-04-02T07:56:21;12.56;49.35
67192;HTU21D;54120;53.504;49.426;2023-04-02T07:58:48;12.48;49.48
67192;HTU21D;54120;53.504;49.426;2023-04-02T08:01:20;13.02;48.35
67192;HTU21D;54120;53.504;49.426;2023-04-02T08:03:48;12.97;48.95
67192;HTU21D;54120;53.504;49.426;2023-04-02T08:06:15;13.25;48.02
67192;HTU21D;54120;53.504;49.426;2023-04-02T08:08:41;13.14;47.34
67192;HTU21D;54120;53.504;49.426;2023-04-02T08:11:08;13.53;46.70
67192;HTU21D;54120;53.504;49.426;2023-04-02T08:13:35;13.44;46.64
67192;HTU21D;54120;53.504;49.426;2023-04-02T08:16:01;13.47;46.92
67192;HTU21D;54120;53.504;49.426;2023-04-02T08:18:28;13.58;46.60
67192;HTU21D;54120;53.504;49.426;2023-04-02T08:20:54;13.25;47.22
67192;HTU21D;54120;53.504;49.426;2023-04-02T08:23:21;13.31;47.06
67192;HTU21D;54120;53.504;49.426;2023-04-02T08:25:48;13.15;47.35
67192;HTU21D;54120;53.504;49.426;2023-04-02T08:28:15;13.26;47.27
67192;HTU21D;54120;53.504;49.426;2023-04-02T08:30:41;13.21;47.92
67192;HTU21D;54120;53.504;49.426;2023-04-02T08:33:08;13.52;46.88
67192;HTU21D;54120;53.504;49.426;2023-04-02T08:35:34;13.91;45.66
67192;HTU21D;54120;53.504;49.426;2023-04-02T08:38:00;14.03;45.05
67192;HTU21D;54120;53.504;49.426;2023-04-02T08:43:27;14.36;44.40
67192;HTU21D;54120;53.504;49.426;2023-04-02T08:46:10;15.12;43.85
67192;HTU21D;54120;53.504;49.426;2023-04-02T08:48:41;15.11;42.12
67192;HTU21D;54120;53.504;49.426;2023-04-02T08:51:21;14.77;42.68
67192;HTU21D;54120;53.504;49.426;2023-04-02T08:53:49;14.81;42.84
67192;HTU21D;54120;53.504;49.426;2023-04-02T09:04:43;14.79;43.19
67192;HTU21D;54120;53.504;49.426;2023-04-02T09:07:15;15.27;41.82
67192;HTU21D;54120;53.504;49.426;2023-04-02T09:09:41;14.67;42.48
67192;HTU21D;54120;53.504;49.426;2023-04-02T09:14:47;14.10;43.64
67192;HTU21D;54120;53.504;49.426;2023-04-02T09:17:21;14.28;43.27
67192;HTU21D;54120;53.504;49.426;2023-04-02T09:20:12;14.54;42.56
67192;HTU21D;54120;53.504;49.426;2023-04-02T09:22:45;14.68;42.28
67192;HTU21D;54120;53.504;49.426;2023-04-02T09:25:16;14.77;41.84
67192;HTU21D;54120;53.504;49.426;2023-04-02T09:27:48;14.75;42.00
67192;HTU21D;54120;53.504;49.426;2023-04-02T09:33:04;14.98;41.77
67192;HTU21D;54120;53.504;49.426;2023-04-02T09:35:36;15.01;42.01
67192;HTU21D;54120;53.504;49.426;2023-04-02T09:38:23;15.43;40.25
67192;HTU21D;54120;53.504;49.426;2023-04-02T09:43:26;14.60;41.94
67192;HTU21D;54120;53.504;49.426;2023-04-02T09:48:40;14.97;41.00
67192;HTU21D;54120;53.504;49.426;2023-04-02T09:51:15;15.42;39.65
67192;HTU21D;54120;53.504;49.426;2023-04-02T09:53:44;15.41;40.01
67192;HTU21D;54120;53.504;49.426;2023-04-02T09:56:20;15.15;40.04
67192;HTU21D;54120;53.504;49.426;2023-04-02T09:59:16;15.01;40.54
67192;HTU21D;54120;53.504;49.426;2023-04-02T10:01:44;14.89;39.75
67192;HTU21D;54120;53.504;49.426;2023-04-02T10:04:40;14.82;40.55
67192;HTU21D;54120;53.504;49.426;2023-04-02T10:07:43;15.29;39.48
67192;HTU21D;54120;53.504;49.426;2023-04-02T10:12:50;15.87;38.64
67192;HTU21D;54120;53.504;49.426;2023-04-02T10:15:24;15.88;36.87
67192;HTU21D;54120;53.504;49.426;2023-04-02T10:17:59;15.83;37.11
67192;HTU21D;54120;53.504;49.426;2023-04-02T10:20:28;15.97;36.93
67192;HTU21D;54120;53.504;49.426;2023-04-02T10:22:54;16.14;36.37
67192;HTU21D;54120;53.504;49.426;2023-04-02T10:25:24;15.47;37.10
67192;HTU21D;54120;53.504;49.426;2023-04-02T10:27:58;15.39;37.34
67192;HTU21D;54120;53.504;49.426;2023-04-02T10:33:17;15.41;34.56
67192;HTU21D;54120;53.504;49.426;2023-04-02T10:36:17;15.41;36.78
67192;HTU21D;54120;53.504;49.426;2023-04-02T10:41:45;15.51;32.67
67192;HTU21D;54120;53.504;49.426;2023-04-02T10:47:03;15.32;32.81
67192;HTU21D;54120;53.504;49.426;2023-04-02T10:54:46;15.49;33.28
67192;HTU21D;54120;53.504;49.426;2023-04-02T10:59:51;15.71;32.48
67192;HTU21D;54120;53.504;49.426;2023-04-02T11:02:37;15.47;30.80
67192;HTU21D;54120;53.504;49.426;2023-04-02T11:07:59;15.55;31.16
67192;HTU21D;54120;53.504;49.426;2023-04-02T11:10:30;15.76;30.90
67192;HTU21D;54120;53.504;49.426;2023-04-02T11:13:02;15.47;30.46
67192;HTU21D;54120;53.504;49.426;2023-04-02T11:15:31;15.39;30.77
67192;HTU21D;54120;53.504;49.426;2023-04-02T11:17:57;15.38;31.24
67192;HTU21D;54120;53.504;49.426;2023-04-02T11:23:19;15.74;31.47
67192;HTU21D;54120;53.504;49.426;2023-04-02T11:25:46;15.73;33.01
67192;HTU21D;54120;53.504;49.426;2023-04-02T11:28:33;15.73;33.87
67192;HTU21D;54120;53.504;49.426;2023-04-02T11:31:01;15.45;34.28
67192;HTU21D;54120;53.504;49.426;2023-04-02T11:35:59;15.58;33.67
67192;HTU21D;54120;53.504;49.426;2023-04-02T11:40:57;15.40;30.61
67192;HTU21D;54120;53.504;49.426;2023-04-02T11:46:04;15.28;32.44
67192;HTU21D;54120;53.504;49.426;2023-04-02T11:48:34;15.41;32.95
67192;HTU21D;54120;53.504;49.426;2023-04-02T11:53:49;15.40;34.59
67192;HTU21D;54120;53.504;49.426;2023-04-02T11:56:58;15.22;34.33
67192;HTU21D;54120;53.504;49.426;2023-04-02T12:04:45;15.54;34.76
67192;HTU21D;54120;53.504;49.426;2023-04-02T12:14:57;15.26;34.70
67192;HTU21D;54120;53.504;49.426;2023-04-02T12:17:33;15.22;35.20
67192;HTU21D;54120;53.504;49.426;2023-04-02T12:20:19;15.28;35.33
67192;HTU21D;54120;53.504;49.426;2023-04-02T12:22:52;15.51;34.93
67192;HTU21D;54120;53.504;49.426;2023-04-02T12:25:32;15.52;34.08
67192;HTU21D;54120;53.504;49.426;2023-04-02T12:28:13;15.38;34.71
67192;HTU21D;54120;53.504;49.426;2023-04-02T12:30:43;15.48;34.90
67192;HTU21D;54120;53.504;49.426;2023-04-02T12:33:29;15.37;34.71
67192;HTU21D;54120;53.504;49.426;2023-04-02T12:36:00;15.34;34.86
67192;HTU21D;54120;53.504;49.426;2023-04-02T12:38:33;15.33;34.86
67192;HTU21D;54120;53.504;49.426;2023-04-02T12:41:04;15.36;34.82
67192;HTU21D;54120;53.504;49.426;2023-04-02T12:43:35;15.54;34.79
67192;HTU21D;54120;53.504;49.426;2023-04-02T12:46:07;15.63;34.25
67192;HTU21D;54120;53.504;49.426;2023-04-02T12:48:34;15.72;34.48
67192;HTU21D;54120;53.504;49.426;2023-04-02T12:51:02;15.73;34.25
67192;HTU21D;54120;53.504;49.426;2023-04-02T12:53:35;15.59;34.31
67192;HTU21D;54120;53.504;49.426;2023-04-02T12:56:03;15.52;34.75
67192;HTU21D;54120;53.504;49.426;2023-04-02T12:58:34;15.59;34.73
67192;HTU21D;54120;53.504;49.426;2023-04-02T13:01:23;15.74;34.45
67192;HTU21D;54120;53.504;49.426;2023-04-02T13:04:18;15.83;34.65
67192;HTU21D;54120;53.504;49.426;2023-04-02T13:06:49;15.74;34.97
67192;HTU21D;54120;53.504;49.426;2023-04-02T13:09:35;15.62;35.40
67192;HTU21D;54120;53.504;49.426;2023-04-02T13:12:04;15.70;34.84
67192;HTU21D;54120;53.504;49.426;2023-04-02T13:14:30;15.74;35.33
67192;HTU21D;54120;53.504;49.426;2023-04-02T13:16:57;15.89;35.05
67192;HTU21D;54120;53.504;49.426;2023-04-02T13:21:54;15.82;35.16
67192;HTU21D;54120;53.504;49.426;2023-04-02T13:24:28;15.86;35.16
67192;HTU21D;54120;53.504;49.426;2023-04-02T13:26:57;15.96;35.41
67192;HTU21D;54120;53.504;49.426;2023-04-02T13:29:27;16.00;35.15
67192;HTU21D;54120;53.504;49.426;2023-04-02T13:31:57;15.99;35.24
67192;HTU21D;54120;53.504;49.426;2023-04-02T13:34:23;15.97;34.51
67192;HTU21D;54120;53.504;49.426;2023-04-02T13:36:49;15.75;35.11
67192;HTU21D;54120;53.504;49.426;2023-04-02T13:39:15;15.74;36.86
67192;HTU21D;54120;53.504;49.426;2023-04-02T13:41:56;15.67;37.90
67192;HTU21D;54120;53.504;49.426;2023-04-02T13:44:31;15.69;39.66
67192;HTU21D;54120;53.504;49.426;2023-04-02T13:46:57;15.59;40.11
67192;HTU21D;54120;53.504;49.426;2023-04-02T13:49:24;15.46;40.78
67192;HTU21D;54120;53.504;49.426;2023-04-02T13:51:58;15.39;41.09
67192;HTU21D;54120;53.504;49.426;2023-04-02T13:54:27;15.37;41.04
67192;HTU21D;54120;53.504;49.426;2023-04-02T13:56:56;15.36;41.48
67192;HTU21D;54120;53.504;49.426;2023-04-02T13:59:23;15.33;41.81
67192;HTU21D;54120;53.504;49.426;2023-04-02T14:01:51;15.34;42.14
67192;HTU21D;54120;53.504;49.426;2023-04-02T14:04:31;15.28;42.58
67192;HTU21D;54120;53.504;49.426;2023-04-02T14:10:16;15.16;43.10
67192;HTU21D;54120;53.504;49.426;2023-04-02T14:18:37;14.87;43.29
67192;HTU21D;54120;53.504;49.426;2023-04-02T14:32:06;14.50;42.08
67192;HTU21D;54120;53.504;49.426;2023-04-02T14:34:55;14.54;42.21
67192;HTU21D;54120;53.504;49.426;2023-04-02T14:37:32;14.51;41.23
67192;HTU21D;54120;53.504;49.426;2023-04-02T14:42:49;14.50;34.09
67192;HTU21D;54120;53.504;49.426;2023-04-02T14:51:28;14.38;33.50
67192;HTU21D;54120;53.504;49.426;2023-04-02T14:56:51;14.19;33.11
67192;HTU21D;54120;53.504;49.426;2023-04-02T15:01:48;14.04;33.39
67192;HTU21D;54120;53.504;49.426;2023-04-02T15:04:20;13.94;33.83
67192;HTU21D;54120;53.504;49.426;2023-04-02T15:06:50;13.88;33.99
67192;HTU21D;54120;53.504;49.426;2023-04-02T15:09:37;13.76;34.34
67192;HTU21D;54120;53.504;49.426;2023-04-02T15:12:09;13.67;34.66
67192;HTU21D;54120;53.504;49.426;2023-04-02T15:14:43;13.66;34.93
67192;HTU21D;54120;53.504;49.426;2023-04-02T15:17:12;13.64;35.16
67192;HTU21D;54120;53.504;49.426;2023-04-02T15:19:38;13.58;35.41
67192;HTU21D;54120;53.504;49.426;2023-04-02T15:30:19;13.26;36.93
67192;HTU21D;54120;53.504;49.426;2023-04-02T15:32:48;13.18;37.20
67192;HTU21D;54120;53.504;49.426;2023-04-02T15:38:06;12.96;37.75
67192;HTU21D;54120;53.504;49.426;2023-04-02T15:46:21;12.72;39.08
67192;HTU21D;54120;53.504;49.426;2023-04-02T16:00:24;12.52;41.20
67192;HTU21D;54120;53.504;49.426;2023-04-02T16:03:28;12.43;41.71
67192;HTU21D;54120;53.504;49.426;2023-04-02T16:11:29;12.33;42.36
67192;HTU21D;54120;53.504;49.426;2023-04-02T16:16:41;12.17;42.91
67192;HTU21D;54120;53.504;49.426;2023-04-02T16:22:07;12.06;43.05
67192;HTU21D;54120;53.504;49.426;2023-04-02T16:24:36;12.02;43.26
67192;HTU21D;54120;53.504;49.426;2023-04-02T16:38:42;11.92;44.36
67192;HTU21D;54120;53.504;49.426;2023-04-02T16:46:34;11.68;45.09
67192;HTU21D;54120;53.504;49.426;2023-04-02T16:52:00;11.60;45.09
67192;HTU21D;54120;53.504;49.426;2023-04-02T16:54:34;11.68;44.92
67192;HTU21D;54120;53.504;49.426;2023-04-02T17:13:18;11.09;46.38
67192;HTU21D;54120;53.504;49.426;2023-04-02T17:15:49;10.96;46.67
67192;HTU21D;54120;53.504;49.426;2023-04-02T17:18:19;10.93;47.14
67192;HTU21D;54120;53.504;49.426;2023-04-02T17:20:47;10.70;47.47
67192;HTU21D;54120;53.504;49.426;2023-04-02T17:23:16;10.53;48.29
67192;HTU21D;54120;53.504;49.426;2023-04-02T17:28:22;10.56;48.27
67192;HTU21D;54120;53.504;49.426;2023-04-02T17:30:54;10.62;48.24
67192;HTU21D;54120;53.504;49.426;2023-04-02T17:33:22;10.42;48.98
67192;HTU21D;54120;53.504;49.426;2023-04-02T17:43:55;10.22;49.63
67192;HTU21D;54120;53.504;49.426;2023-04-02T17:47:01;10.14;50.02
67192;HTU21D;54120;53.504;49.426;2023-04-02T17:49:35;10.09;50.34
67192;HTU21D;54120;53.504;49.426;2023-04-02T17:52:23;9.94;50.66
67192;HTU21D;54120;53.504;49.426;2023-04-02T18:00:40;9.60;51.62
67192;HTU21D;54120;53.504;49.426;2023-04-02T18:06:21;9.71;51.76
67192;HTU21D;54120;53.504;49.426;2023-04-02T18:09:13;9.66;52.10
67192;HTU21D;54120;53.504;49.426;2023-04-02T18:19:47;9.16;53.88
67192;HTU21D;54120;53.504;49.426;2023-04-02T18:28:45;8.34;55.97
67192;HTU21D;54120;53.504;49.426;2023-04-02T18:39:34;7.69;58.65
67192;HTU21D;54120;53.504;49.426;2023-04-02T18:42:11;7.37;59.40
67192;HTU21D;54120;53.504;49.426;2023-04-02T18:44:57;7.15;60.12
67192;HTU21D;54120;53.504;49.426;2023-04-02T18:47:26;7.01;60.28
67192;HTU21D;54120;53.504;49.426;2023-04-02T18:50:15;7.03;61.33
67192;HTU21D;54120;53.504;49.426;2023-04-02T18:52:43;7.48;59.81
67192;HTU21D;54120;53.504;49.426;2023-04-02T18:55:26;7.53;59.96
67192;HTU21D;54120;53.504;49.426;2023-04-02T18:58:01;7.88;60.30
67192;HTU21D;54120;53.504;49.426;2023-04-02T19:00:31;8.00;59.31
67192;HTU21D;54120;53.504;49.426;2023-04-02T19:08:30;8.45;58.06
67192;HTU21D;54120;53.504;49.426;2023-04-02T19:11:00;8.46;58.07
67192;HTU21D;54120;53.504;49.426;2023-04-02T19:13:29;8.66;57.42
67192;HTU21D;54120;53.504;49.426;2023-04-02T19:26:15;8.21;59.21
67192;HTU21D;54120;53.504;49.426;2023-04-02T19:31:56;8.21;59.28
67192;HTU21D;54120;53.504;49.426;2023-04-02T19:37:28;8.43;58.17
67192;HTU21D;54120;53.504;49.426;2023-04-02T19:40:22;8.34;60.03
67192;HTU21D;54120;53.504;49.426;2023-04-02T19:42:53;8.13;60.67
67192;HTU21D;54120;53.504;49.426;2023-04-02T19:45:27;8.11;60.63
67192;HTU21D;54120;53.504;49.426;2023-04-02T19:47:55;7.92;60.38
67192;HTU21D;54120;53.504;49.426;2023-04-02T19:50:23;7.91;62.00
67192;HTU21D;54120;53.504;49.426;2023-04-02T19:52:49;7.89;62.37
67192;HTU21D;54120;53.504;49.426;2023-04-02T19:55:16;7.96;62.11
67192;HTU21D;54120;53.504;49.426;2023-04-02T19:57:42;8.07;62.12
67192;HTU21D;54120;53.504;49.426;2023-04-02T20:00:12;8.05;62.28
67192;HTU21D;54120;53.504;49.426;2023-04-02T20:02:39;8.16;61.63
67192;HTU21D;54120;53.504;49.426;2023-04-02T20:05:05;8.14;62.12
67192;HTU21D;54120;53.504;49.426;2023-04-02T20:07:32;8.21;62.01
67192;HTU21D;54120;53.504;49.426;2023-04-02T20:09:58;8.11;62.33
67192;HTU21D;54120;53.504;49.426;2023-04-02T20:12:24;8.07;62.64
67192;HTU21D;54120;53.504;49.426;2023-04-02T20:14:50;7.99;62.87
67192;HTU21D;54120;53.504;49.426;2023-04-02T20:17:16;7.89;63.15
67192;HTU21D;54120;53.504;49.426;2023-04-02T20:19:43;7.91;63.56
67192;HTU21D;54120;53.504;49.426;2023-04-02T20:22:09;8.04;63.09
67192;HTU21D;54120;53.504;49.426;2023-04-02T20:24:35;8.05;62.58
67192;HTU21D;54120;53.504;49.426;2023-04-02T20:27:01;7.70;63.72
67192;HTU21D;54120;53.504;49.426;2023-04-02T20:29:28;7.68;63.50
67192;HTU21D;54120;53.504;49.426;2023-04-02T20:31:56;7.69;63.28
67192;HTU21D;54120;53.504;49.426;2023-04-02T20:34:22;7.70;62.93
67192;HTU21D;54120;53.504;49.426;2023-04-02T20:36:48;7.61;63.80
67192;HTU21D;54120;53.504;49.426;2023-04-02T20:39:16;7.63;63.76
67192;HTU21D;54120;53.504;49.426;2023-04-02T20:41:45;7.76;62.86
67192;HTU21D;54120;53.504;49.426;2023-04-02T20:44:11;7.69;62.93
67192;HTU21D;54120;53.504;49.426;2023-04-02T20:46:38;7.67;63.21
67192;HTU21D;54120;53.504;49.426;2023-04-02T20:49:04;7.59;63.56
67192;HTU21D;54120;53.504;49.426;2023-04-02T20:51:31;7.56;63.41
67192;HTU21D;54120;53.504;49.426;2023-04-02T20:53:57;7.39;63.92
67192;HTU21D;54120;53.504;49.426;2023-04-02T20:56:23;7.31;64.26
67192;HTU21D;54120;53.504;49.426;2023-04-02T20:58:49;7.23;64.41
67192;HTU21D;54120;53.504;49.426;2023-04-02T21:03:43;7.10;64.68
67192;HTU21D;54120;53.504;49.426;2023-04-02T21:06:19;6.88;65.30
67192;HTU21D;54120;53.504;49.426;2023-04-02T21:08:47;6.74;65.97
67192;HTU21D;54120;53.504;49.426;2023-04-02T21:11:14;6.59;66.11
67192;HTU21D;54120;53.504;49.426;2023-04-02T21:13:41;6.46;66.22
67192;HTU21D;54120;53.504;49.426;2023-04-02T21:16:22;6.21;67.48
67192;HTU21D;54120;53.504;49.426;2023-04-02T21:18:50;6.07;67.88